Skip Navigation LinksHome page > Weather > Current weather Skip Navigation Links

Current Weather

Ronald Reagan Washington National, Washington

For information only: do not use for flight planning or navigation.
Latest weather
Observation time Sunday, July 5, 2015 10:52 PM EDT
Local time Sunday, July 5, 2015 10:59 PM EDT
Flight conditions Visual Meteorological Conditions
Winds
Wind speed calm
Visibility 10 mi.
Sky condition
Ceiling 25,000 ft. overcast
Cloud layer few clouds 7,000 ft.
Cloud layer overcast 25,000 ft.
Temperature 79°F
Dewpoint 70°F
Altimeter 30.13 in.Hg
Pressure change last 3 hours-0.01 in.Hg
Pressure rising more quickly
Derived measurements
Relative humidity 74%
Heat index 79°F
Density altitude 1398 ft.
Sea-level pressure 30.13 in.Hg
Remarks
Automated weather observing station with precipitation discriminator.
METAR KDCA 060252Z 00000KT 10SM FEW070 OVC250 26/21 A3013 RMK AO2 SLP204 T02610211 53005

Settings

Location code

InnerDrive.Weather 4.0.5567.0 Release CLR 4.0.30319.34014
Copyright ©2015 Inner Drive Technology. All rights reserved. Portions Copyright ©1986-2015 David Braverman.

Find weather

Site navigation


Skip Navigation Links

Place info

Page info

PayPal - The safer, easier way to pay online!

Return home.

Copyright ©2015 Inner Drive Technology. Purveyors of fine, hand-crafted computer software. Page printed 2015-07-06T02:59:52 UTC.